createdAt,value
2018-12-18T00:00:21.496Z,9.50
2018-12-18T00:02:50.856Z,9.70
2018-12-18T00:05:25.391Z,10.00
2018-12-18T00:07:53.264Z,8.67
2018-12-18T00:10:21.013Z,10.20
2018-12-18T00:12:48.760Z,9.30
2018-12-18T00:15:16.493Z,10.67
2018-12-18T00:17:44.265Z,10.87
2018-12-18T00:20:12.008Z,11.73
2018-12-18T00:22:39.737Z,13.53
2018-12-18T00:25:07.463Z,15.33
2018-12-18T00:27:35.168Z,15.03
2018-12-18T00:30:03.617Z,14.50
2018-12-18T00:32:31.345Z,15.47
2018-12-18T00:34:59.073Z,14.50
2018-12-18T00:37:26.801Z,15.20
2018-12-18T00:39:54.474Z,16.03
2018-12-18T00:42:23.185Z,15.83
2018-12-18T00:44:50.898Z,18.10
2018-12-18T00:47:18.633Z,16.83
2018-12-18T00:49:46.353Z,17.87
2018-12-18T00:52:14.124Z,16.57
2018-12-18T00:54:41.857Z,18.00
2018-12-18T00:57:09.536Z,16.63
2018-12-18T00:59:37.279Z,16.43
2018-12-18T01:02:05.141Z,16.13
2018-12-18T01:04:32.920Z,17.70
2018-12-18T01:07:00.663Z,17.67
2018-12-18T01:09:28.511Z,18.53
2018-12-18T01:11:56.269Z,21.40
2018-12-18T01:14:24.056Z,19.50
2018-12-18T01:16:51.840Z,20.47
2018-12-18T01:19:19.584Z,20.40
2018-12-18T01:21:47.262Z,15.80
2018-12-18T01:24:15.016Z,21.57
2018-12-18T01:26:42.765Z,23.40
2018-12-18T01:29:10.520Z,20.43
2018-12-18T01:31:38.244Z,21.40
2018-12-18T01:34:05.945Z,23.13
2018-12-18T01:36:33.677Z,20.00
2018-12-18T01:39:01.401Z,19.43
2018-12-18T01:41:29.148Z,25.43
2018-12-18T01:43:56.910Z,24.37
2018-12-18T01:46:24.651Z,26.17
2018-12-18T01:48:53.043Z,25.50
2018-12-18T01:51:20.779Z,24.33
2018-12-18T01:53:48.661Z,23.73
2018-12-18T01:56:16.339Z,25.23
2018-12-18T01:58:44.045Z,21.90
2018-12-18T02:01:11.752Z,26.40
2018-12-18T02:03:39.517Z,24.07
2018-12-18T02:06:07.261Z,27.40
2018-12-18T02:08:34.988Z,25.20
2018-12-18T02:11:02.788Z,22.20
2018-12-18T02:13:30.544Z,23.90
2018-12-18T02:15:58.293Z,27.37
2018-12-18T02:18:26.024Z,26.10
2018-12-18T02:20:53.761Z,27.60
2018-12-18T02:23:21.465Z,27.30
2018-12-18T02:25:50.963Z,30.03
2018-12-18T02:28:18.701Z,28.17
2018-12-18T02:30:46.500Z,26.97
2018-12-18T02:33:14.216Z,26.07
2018-12-18T02:35:41.945Z,27.23
2018-12-18T02:38:09.682Z,27.60
2018-12-18T02:40:37.387Z,25.17
2018-12-18T02:43:05.121Z,26.40
2018-12-18T02:45:32.971Z,23.23
2018-12-18T02:48:00.887Z,28.10
2018-12-18T02:50:28.666Z,26.53
2018-12-18T02:52:56.370Z,28.57
2018-12-18T02:55:24.102Z,27.67
2018-12-18T02:57:51.833Z,26.90
2018-12-18T03:00:19.572Z,27.33
2018-12-18T03:02:47.357Z,27.43
2018-12-18T03:05:15.098Z,27.43
2018-12-18T03:07:42.816Z,29.47
2018-12-18T03:10:10.553Z,26.60
2018-12-18T03:12:38.300Z,28.43
2018-12-18T03:15:06.165Z,30.07
2018-12-18T03:17:34.021Z,30.57
2018-12-18T03:20:03.671Z,30.07
2018-12-18T03:22:31.470Z,27.40
2018-12-18T03:24:59.232Z,29.73
2018-12-18T03:27:26.929Z,30.37
2018-12-18T03:29:54.760Z,29.70
2018-12-18T03:32:26.173Z,32.43
2018-12-18T03:34:53.958Z,29.47
2018-12-18T03:37:21.712Z,29.83
2018-12-18T03:39:49.415Z,31.80
2018-12-18T03:42:18.103Z,33.23
2018-12-18T03:44:45.846Z,33.67
2018-12-18T03:47:13.567Z,33.57
2018-12-18T03:49:41.301Z,32.80
2018-12-18T03:52:09.672Z,31.63
2018-12-18T03:54:37.529Z,31.43
2018-12-18T03:57:05.253Z,32.77
2018-12-18T03:59:33.255Z,34.63
2018-12-18T04:02:01.041Z,32.07
2018-12-18T04:04:35.334Z,33.40
2018-12-18T04:06:58.492Z,33.47
2018-12-18T04:09:26.281Z,34.20
2018-12-18T04:11:59.477Z,34.07
2018-12-18T04:14:27.224Z,33.23
2018-12-18T04:16:54.977Z,37.13
2018-12-18T04:19:22.731Z,37.00
2018-12-18T04:21:50.476Z,36.83
2018-12-18T04:24:18.176Z,36.20
2018-12-18T04:26:45.927Z,35.87
2018-12-18T04:29:13.632Z,34.40
2018-12-18T04:31:41.397Z,35.97
2018-12-18T04:34:09.101Z,36.37
2018-12-18T04:36:36.850Z,35.83
2018-12-18T04:39:06.089Z,33.53
2018-12-18T04:41:33.849Z,34.13
2018-12-18T04:44:01.576Z,35.77
2018-12-18T04:46:29.265Z,37.17
2018-12-18T04:48:56.925Z,36.37
2018-12-18T04:51:24.690Z,33.80
2018-12-18T04:53:52.436Z,32.57
2018-12-18T04:56:20.193Z,32.13
2018-12-18T04:58:48.932Z,33.43
2018-12-18T05:01:16.658Z,35.23
2018-12-18T05:03:44.428Z,31.07
2018-12-18T05:06:12.195Z,33.13
2018-12-18T05:08:39.969Z,32.30
2018-12-18T05:11:07.668Z,34.53
2018-12-18T05:13:35.374Z,35.83
2018-12-18T05:16:03.051Z,35.97
2018-12-18T05:18:30.768Z,34.60
2018-12-18T05:20:58.506Z,35.47
2018-12-18T05:23:26.220Z,34.03
2018-12-18T05:25:54.119Z,34.33
2018-12-18T05:28:21.921Z,34.67
2018-12-18T05:30:49.671Z,38.17
2018-12-18T05:33:17.421Z,36.10
2018-12-18T05:35:45.155Z,35.03
2018-12-18T05:38:12.894Z,33.97
2018-12-18T05:40:40.683Z,35.90
2018-12-18T05:43:08.415Z,33.67
2018-12-18T05:45:36.172Z,35.23
2018-12-18T05:48:03.910Z,31.20
2018-12-18T05:50:31.598Z,34.67
2018-12-18T05:52:59.325Z,30.97
2018-12-18T05:55:27.060Z,32.13
2018-12-18T05:57:54.824Z,31.90
2018-12-18T06:00:22.555Z,32.00
2018-12-18T06:02:50.311Z,29.90
2018-12-18T06:05:18.057Z,29.67
2018-12-18T06:07:45.831Z,30.67
2018-12-18T06:10:13.539Z,28.20
2018-12-18T06:12:41.261Z,30.37
2018-12-18T06:15:09.751Z,29.67
2018-12-18T06:17:37.512Z,31.40
2018-12-18T06:20:05.678Z,29.80
2018-12-18T06:22:33.409Z,29.93
2018-12-18T06:25:01.149Z,28.63
2018-12-18T06:27:28.896Z,29.87
2018-12-18T06:29:56.639Z,28.90
2018-12-18T06:32:24.398Z,27.10
2018-12-18T06:34:52.114Z,28.53
2018-12-18T06:37:19.849Z,27.37
2018-12-18T06:39:47.553Z,26.07
2018-12-18T06:42:15.258Z,23.20
2018-12-18T06:44:42.990Z,21.07
2018-12-18T06:47:11.984Z,23.53
2018-12-18T06:49:39.755Z,22.67
2018-12-18T06:52:07.535Z,23.17
2018-12-18T06:54:35.262Z,22.73
2018-12-18T06:57:03.036Z,21.87
2018-12-18T06:59:30.748Z,22.87
2018-12-18T07:01:58.455Z,23.27
2018-12-18T07:04:26.185Z,22.10
2018-12-18T07:06:53.938Z,22.90
2018-12-18T07:09:21.940Z,24.00
2018-12-18T07:11:49.770Z,23.27
2018-12-18T07:14:17.592Z,22.97
2018-12-18T07:16:45.389Z,22.30
2018-12-18T07:19:13.369Z,23.30
2018-12-18T07:21:41.173Z,23.43
2018-12-18T07:24:14.129Z,21.40
2018-12-18T07:26:38.722Z,22.27
2018-12-18T07:29:06.453Z,20.00
2018-12-18T07:31:34.212Z,20.33
2018-12-18T07:34:01.896Z,19.90
2018-12-18T07:36:29.657Z,20.50
2018-12-18T07:38:57.494Z,21.60
2018-12-18T07:41:25.257Z,21.57
2018-12-18T07:43:54.784Z,18.53
2018-12-18T07:46:23.360Z,21.13
2018-12-18T07:48:51.062Z,19.47
2018-12-18T07:51:19.132Z,20.10
2018-12-18T07:53:47.242Z,19.80
2018-12-18T07:56:15.031Z,18.43
2018-12-18T07:58:42.772Z,18.57
2018-12-18T08:01:10.541Z,19.67
2018-12-18T08:03:38.724Z,20.93
2018-12-18T08:06:06.801Z,18.57
2018-12-18T08:08:34.581Z,18.23
2018-12-18T08:11:02.364Z,17.60
2018-12-18T08:13:30.487Z,19.33
2018-12-18T08:15:58.273Z,18.40
2018-12-18T08:18:26.186Z,16.63
2018-12-18T08:20:54.037Z,15.97
2018-12-18T08:23:21.840Z,16.27
2018-12-18T08:25:49.653Z,17.00
2018-12-18T08:28:17.345Z,17.63
2018-12-18T08:30:45.118Z,14.33
2018-12-18T08:33:12.932Z,16.90
2018-12-18T08:35:40.684Z,17.60
2018-12-18T08:38:08.421Z,16.83
2018-12-18T08:40:36.256Z,16.50
2018-12-18T08:43:04.041Z,17.10
2018-12-18T08:45:31.854Z,16.07
2018-12-18T08:47:59.585Z,16.17
2018-12-18T08:50:27.435Z,16.67
2018-12-18T08:52:55.213Z,16.43
2018-12-18T08:55:22.977Z,16.57
2018-12-18T08:57:50.794Z,15.03
2018-12-18T09:00:18.618Z,13.63
2018-12-18T09:02:46.415Z,13.00
2018-12-18T09:05:14.282Z,12.57
2018-12-18T09:07:42.048Z,13.20
2018-12-18T09:10:10.340Z,12.30
2018-12-18T09:12:38.070Z,11.60
2018-12-18T09:15:12.369Z,10.97
2018-12-18T09:17:48.166Z,10.70
2018-12-18T09:20:15.954Z,10.17
2018-12-18T09:22:43.853Z,10.10
2018-12-18T09:25:11.740Z,10.60
2018-12-18T09:27:39.465Z,9.47
2018-12-18T09:30:09.880Z,9.47
2018-12-18T09:32:37.671Z,9.93
2018-12-18T09:35:06.199Z,10.53
2018-12-18T09:37:33.961Z,8.60
2018-12-18T09:40:01.714Z,10.50
2018-12-18T09:42:35.005Z,9.90
2018-12-18T09:45:02.784Z,10.10
2018-12-18T09:47:30.569Z,10.07
2018-12-18T09:49:58.336Z,8.87
2018-12-18T09:52:26.052Z,10.40
2018-12-18T09:54:53.820Z,10.80
2018-12-18T09:58:27.676Z,11.37
2018-12-18T10:00:55.813Z,10.37
2018-12-18T10:03:23.761Z,9.53
2018-12-18T10:05:56.262Z,10.30
2018-12-18T10:08:21.573Z,11.90
2018-12-18T10:10:49.286Z,12.30
2018-12-18T10:13:17.025Z,12.00
2018-12-18T10:15:44.744Z,11.67
2018-12-18T10:18:12.484Z,12.63
2018-12-18T10:20:40.192Z,12.17
2018-12-18T10:23:07.893Z,11.03
2018-12-18T10:25:35.637Z,11.00
2018-12-18T10:28:03.388Z,11.67
2018-12-18T10:30:31.157Z,11.13
2018-12-18T10:32:59.111Z,10.30
2018-12-18T10:35:26.880Z,10.47
2018-12-18T10:37:54.575Z,10.83
2018-12-18T10:40:22.439Z,11.20
2018-12-18T10:42:50.181Z,10.63
2018-12-18T10:45:19.808Z,9.63
2018-12-18T10:47:47.526Z,8.80
2018-12-18T10:50:15.306Z,11.07
2018-12-18T10:52:43.052Z,10.17
2018-12-18T10:55:10.812Z,10.47
2018-12-18T10:57:38.579Z,10.23
2018-12-18T11:00:12.685Z,10.47
2018-12-18T11:02:40.429Z,10.60
2018-12-18T11:05:08.259Z,9.73
2018-12-18T11:07:36.002Z,10.30
2018-12-18T11:10:04.054Z,10.00
2018-12-18T11:12:38.696Z,10.27
2018-12-18T11:15:07.677Z,10.77
2018-12-18T11:17:35.529Z,10.97
2018-12-18T11:20:03.794Z,11.67
2018-12-18T11:22:31.484Z,10.63
2018-12-18T11:24:59.208Z,9.60
2018-12-18T11:27:26.933Z,10.30
2018-12-18T11:29:54.690Z,12.07
2018-12-18T11:32:22.385Z,11.27
2018-12-18T11:34:50.126Z,11.47
2018-12-18T11:37:17.839Z,12.40
2018-12-18T11:39:45.633Z,10.80
2018-12-18T11:42:13.377Z,11.10
2018-12-18T11:44:41.451Z,12.70
2018-12-18T11:47:09.336Z,13.20
2018-12-18T11:49:37.104Z,14.70
2018-12-18T11:52:04.841Z,13.30
2018-12-18T11:54:32.584Z,12.67
2018-12-18T11:57:00.311Z,11.20
2018-12-18T11:59:28.061Z,12.43
2018-12-18T12:01:55.767Z,12.73
2018-12-18T12:04:23.543Z,12.90
2018-12-18T12:06:51.262Z,12.87
2018-12-18T12:09:18.977Z,12.07
2018-12-18T12:11:46.680Z,12.07
2018-12-18T12:14:14.369Z,11.63
2018-12-18T12:16:42.093Z,11.03
2018-12-18T12:19:09.817Z,11.77
2018-12-18T12:21:37.596Z,11.67
2018-12-18T12:24:05.397Z,11.73
2018-12-18T12:26:33.968Z,11.17
2018-12-18T12:29:02.104Z,12.47
2018-12-18T12:31:29.844Z,12.00
2018-12-18T12:33:57.631Z,11.23
2018-12-18T12:36:29.567Z,12.40
2018-12-18T12:38:55.071Z,13.53
2018-12-18T12:41:22.795Z,11.30
2018-12-18T12:43:50.622Z,11.43
2018-12-18T12:46:18.369Z,11.17
2018-12-18T12:48:51.723Z,9.80
2018-12-18T12:51:19.400Z,10.17
2018-12-18T12:53:47.123Z,10.37
2018-12-18T12:56:14.836Z,10.67
2018-12-18T12:58:42.582Z,11.40
2018-12-18T13:01:10.253Z,11.50
2018-12-18T13:03:37.940Z,9.50
2018-12-18T13:06:05.639Z,9.57
2018-12-18T13:08:33.383Z,9.37
2018-12-18T13:11:01.184Z,9.80
2018-12-18T13:13:28.894Z,9.37
2018-12-18T13:15:56.624Z,9.00
2018-12-18T13:18:24.332Z,8.80
2018-12-18T13:20:52.043Z,10.37
2018-12-18T13:23:19.805Z,10.00
2018-12-18T13:25:47.553Z,9.97
2018-12-18T13:28:15.284Z,9.37
2018-12-18T13:30:42.988Z,9.50
2018-12-18T13:33:10.690Z,9.37
2018-12-18T13:35:38.401Z,9.40
2018-12-18T13:38:06.258Z,10.03
2018-12-18T13:40:34.015Z,9.60
2018-12-18T13:43:01.783Z,9.47
2018-12-18T13:45:29.533Z,9.60
2018-12-18T13:47:57.216Z,9.70
2018-12-18T13:50:24.960Z,11.00
2018-12-18T13:52:52.721Z,9.87
2018-12-18T13:55:20.448Z,9.03
2018-12-18T13:57:48.175Z,8.47
2018-12-18T14:00:15.900Z,8.93
2018-12-18T14:02:43.645Z,8.07
2018-12-18T14:05:11.614Z,7.77
2018-12-18T14:07:39.320Z,8.03
2018-12-18T14:10:07.599Z,8.33
2018-12-18T14:12:35.465Z,7.70
2018-12-18T14:15:03.439Z,8.60
2018-12-18T14:17:31.187Z,7.67
2018-12-18T14:19:59.001Z,7.93
2018-12-18T14:22:26.719Z,8.57
2018-12-18T14:24:54.413Z,8.67
2018-12-18T14:27:22.194Z,8.50
2018-12-18T14:29:49.894Z,8.73
2018-12-18T14:32:17.600Z,9.00
2018-12-18T14:34:45.314Z,8.50
2018-12-18T14:37:13.137Z,8.23
2018-12-18T14:39:40.918Z,8.67
2018-12-18T14:42:08.652Z,7.70
2018-12-18T14:44:36.341Z,8.30
2018-12-18T14:52:02.460Z,8.00
2018-12-18T14:54:30.350Z,8.10
2018-12-18T14:56:58.496Z,7.97
2018-12-18T14:59:26.295Z,7.60
2018-12-18T15:01:54.069Z,7.77
2018-12-18T15:04:21.804Z,7.53
2018-12-18T15:06:49.594Z,7.57
2018-12-18T15:09:17.351Z,6.93
2018-12-18T15:11:45.132Z,7.90
2018-12-18T15:14:14.317Z,7.20
2018-12-18T15:16:42.232Z,7.83
2018-12-18T15:19:10.021Z,7.43
2018-12-18T15:21:37.772Z,6.87
2018-12-18T15:24:05.604Z,6.93
2018-12-18T15:26:33.341Z,6.53
2018-12-18T15:29:01.138Z,6.23
2018-12-18T15:31:28.861Z,6.70
2018-12-18T15:33:56.629Z,6.50
2018-12-18T15:36:24.415Z,6.10
2018-12-18T15:38:52.170Z,5.57
2018-12-18T15:41:19.936Z,6.00
2018-12-18T15:43:47.661Z,6.10
2018-12-18T15:46:15.414Z,5.67
2018-12-18T15:48:43.623Z,6.80
2018-12-18T15:51:13.266Z,7.07
2018-12-18T15:53:41.000Z,6.47
2018-12-18T15:56:08.829Z,4.20
2018-12-18T15:58:36.561Z,5.20
2018-12-18T16:01:05.772Z,6.83
2018-12-18T16:03:33.539Z,6.67
2018-12-18T16:06:01.711Z,5.57
2018-12-18T16:08:29.429Z,5.77
2018-12-18T16:10:57.179Z,5.87
2018-12-18T16:13:24.928Z,6.47
2018-12-18T16:15:52.662Z,6.20
2018-12-18T16:18:20.388Z,6.17
2018-12-18T16:20:48.214Z,6.03
2018-12-18T16:23:15.960Z,7.20
2018-12-18T16:25:43.743Z,6.20
2018-12-18T16:28:11.515Z,5.23
2018-12-18T16:30:39.335Z,5.73
2018-12-18T16:33:07.972Z,6.77
2018-12-18T16:35:36.081Z,6.30
2018-12-18T16:38:03.809Z,6.33
2018-12-18T16:40:31.788Z,5.70
2018-12-18T16:42:59.558Z,5.37
2018-12-18T16:45:27.326Z,6.00
2018-12-18T16:47:55.130Z,6.10
2018-12-18T16:50:26.553Z,7.17
2018-12-18T16:52:52.688Z,6.27
2018-12-18T16:55:20.416Z,6.90
2018-12-18T16:57:48.159Z,5.93
2018-12-18T17:00:15.909Z,6.83
2018-12-18T17:02:44.996Z,5.77
2018-12-18T17:05:13.025Z,6.10
2018-12-18T17:07:41.084Z,6.77
2018-12-18T17:10:09.415Z,7.10
2018-12-18T17:12:40.497Z,5.93
2018-12-18T17:15:08.306Z,7.23
2018-12-18T17:17:37.028Z,6.30
2018-12-18T17:20:04.838Z,7.07
2018-12-18T17:22:32.609Z,7.53
2018-12-18T17:25:00.384Z,6.40
2018-12-18T17:27:28.093Z,6.97
2018-12-18T17:29:56.676Z,6.37
2018-12-18T17:32:25.344Z,6.47
2018-12-18T17:34:53.460Z,6.60
2018-12-18T17:37:21.832Z,6.87
2018-12-18T17:39:49.915Z,6.70
2018-12-18T17:42:17.715Z,6.63
2018-12-18T17:44:45.470Z,7.00
2018-12-18T17:47:13.305Z,6.07
2018-12-18T17:49:41.307Z,6.97
2018-12-18T17:52:09.373Z,6.10
2018-12-18T17:54:37.135Z,6.50
2018-12-18T17:57:04.929Z,5.77
2018-12-18T17:59:32.689Z,6.20
2018-12-18T18:02:00.427Z,6.30
2018-12-18T18:04:28.235Z,5.93
2018-12-18T18:06:55.965Z,5.47
2018-12-18T18:09:23.877Z,6.40
2018-12-18T18:11:51.629Z,5.70
2018-12-18T18:14:19.379Z,6.20
2018-12-18T18:16:48.097Z,5.73
2018-12-18T18:19:15.883Z,6.47
2018-12-18T18:21:43.645Z,5.10
2018-12-18T18:24:11.377Z,5.33
2018-12-18T18:26:39.092Z,5.07
2018-12-18T18:29:07.171Z,6.03
2018-12-18T18:31:34.969Z,6.00
2018-12-18T18:34:02.737Z,5.97
2018-12-18T18:36:30.667Z,6.07
2018-12-18T18:38:59.145Z,5.97
2018-12-18T18:41:26.898Z,5.07
2018-12-18T18:43:54.680Z,5.30
2018-12-18T18:46:22.422Z,5.97
2018-12-18T18:48:50.159Z,5.30
2018-12-18T18:51:17.866Z,5.20
2018-12-18T18:53:45.620Z,4.97
2018-12-18T18:56:13.740Z,4.43
2018-12-18T18:58:41.501Z,4.83
2018-12-18T19:01:09.269Z,4.63
2018-12-18T19:03:37.050Z,4.40
2018-12-18T19:06:04.780Z,5.07
2018-12-18T19:08:32.549Z,3.93
2018-12-18T19:11:01.029Z,4.17
2018-12-18T19:13:28.784Z,3.87
2018-12-18T19:15:56.493Z,4.03
2018-12-18T19:18:24.201Z,3.40
2018-12-18T19:20:51.944Z,3.37
2018-12-18T19:23:19.705Z,3.80
2018-12-18T19:25:48.427Z,3.63
2018-12-18T19:28:16.224Z,4.37
2018-12-18T19:30:44.005Z,3.60
2018-12-18T19:33:11.786Z,3.80
2018-12-18T19:35:39.635Z,4.93
2018-12-18T19:38:07.588Z,3.93
2018-12-18T19:40:36.193Z,3.90
2018-12-18T19:43:04.060Z,3.73
2018-12-18T19:45:31.823Z,4.30
2018-12-18T19:48:00.093Z,3.50
2018-12-18T19:50:27.846Z,3.73
2018-12-18T19:52:55.615Z,3.83
2018-12-18T19:55:23.361Z,3.83
2018-12-18T19:57:51.081Z,3.90
2018-12-18T20:00:18.851Z,4.30
2018-12-18T20:02:46.594Z,4.47
2018-12-18T20:05:14.508Z,4.30
2018-12-18T20:07:42.276Z,4.60
2018-12-18T20:10:10.005Z,3.90
2018-12-18T20:12:37.790Z,4.60
2018-12-18T20:15:05.705Z,4.40
2018-12-18T20:17:33.485Z,4.83
2018-12-18T20:20:01.245Z,4.60
2018-12-18T20:22:29.225Z,4.70
2018-12-18T20:24:56.990Z,5.00
2018-12-18T20:27:25.037Z,4.93
2018-12-18T20:29:53.009Z,5.03
2018-12-18T20:32:20.754Z,5.50
2018-12-18T20:34:49.537Z,4.87
2018-12-18T20:37:18.344Z,5.53
2018-12-18T20:39:49.462Z,5.47
2018-12-18T20:42:17.274Z,5.33
2018-12-18T20:44:44.981Z,5.50
2018-12-18T20:47:12.778Z,5.40
2018-12-18T20:49:41.537Z,5.10
2018-12-18T20:52:09.285Z,5.17
2018-12-18T20:54:37.145Z,5.60
2018-12-18T20:57:04.890Z,5.73
2018-12-18T20:59:32.639Z,5.87
2018-12-18T21:02:00.541Z,5.30
2018-12-18T21:04:28.400Z,5.90
2018-12-18T21:06:56.691Z,5.83
2018-12-18T21:09:24.528Z,6.43
2018-12-18T21:11:52.288Z,5.30
2018-12-18T21:14:20.065Z,6.30
2018-12-18T21:16:47.852Z,5.47
2018-12-18T21:19:15.618Z,5.80
2018-12-18T21:21:43.676Z,5.87
2018-12-18T21:24:11.485Z,5.70
2018-12-18T21:26:39.926Z,6.03
2018-12-18T21:29:08.778Z,6.10
2018-12-18T21:31:36.572Z,6.00
2018-12-18T21:34:04.376Z,6.40
2018-12-18T21:36:32.276Z,5.80
2018-12-18T21:39:00.066Z,6.10
2018-12-18T21:41:28.406Z,5.90
2018-12-18T21:43:56.165Z,6.03
2018-12-18T21:46:23.911Z,7.57
2018-12-18T21:48:51.751Z,6.30
2018-12-18T21:51:20.471Z,7.13
2018-12-18T21:53:48.330Z,6.80
2018-12-18T21:56:16.109Z,7.23
2018-12-18T21:58:43.819Z,7.57
2018-12-18T22:01:11.586Z,7.27
2018-12-18T22:03:39.367Z,6.87
2018-12-18T22:06:07.166Z,7.13
2018-12-18T22:08:36.971Z,7.30
2018-12-18T22:11:04.978Z,6.77
2018-12-18T22:13:33.256Z,7.67
2018-12-18T22:16:01.035Z,7.10
2018-12-18T22:18:28.814Z,7.67
2018-12-18T22:20:56.547Z,8.23
2018-12-18T22:23:24.315Z,8.00
2018-12-18T22:25:53.121Z,8.33
2018-12-18T22:28:20.892Z,8.43
2018-12-18T22:30:48.692Z,7.80
2018-12-18T22:33:16.427Z,7.97
2018-12-18T22:35:44.173Z,8.17
2018-12-18T22:38:11.931Z,7.33
2018-12-18T22:40:39.688Z,8.40
2018-12-18T22:43:07.405Z,8.40
2018-12-18T22:45:35.119Z,8.37
2018-12-18T22:48:02.896Z,7.97
2018-12-18T22:50:30.646Z,8.00
2018-12-18T22:52:58.406Z,7.83
2018-12-18T22:55:26.126Z,7.33
2018-12-18T22:57:54.414Z,7.90
2018-12-18T23:00:27.772Z,8.20
2018-12-18T23:02:55.524Z,7.97
2018-12-18T23:05:23.247Z,8.43
2018-12-18T23:07:50.986Z,7.80
2018-12-18T23:10:18.732Z,7.63
2018-12-18T23:12:46.592Z,8.00
2018-12-18T23:15:14.429Z,8.93
2018-12-18T23:17:42.264Z,8.63
2018-12-18T23:20:10.033Z,8.90
2018-12-18T23:22:37.745Z,7.90
2018-12-18T23:25:05.495Z,8.43
2018-12-18T23:27:33.195Z,8.03
2018-12-18T23:30:00.966Z,8.00
2018-12-18T23:32:28.692Z,7.43
2018-12-18T23:34:56.420Z,7.03
2018-12-18T23:37:24.161Z,7.90
2018-12-18T23:39:51.889Z,7.33
2018-12-18T23:42:19.655Z,7.53
2018-12-18T23:44:48.382Z,6.70
2018-12-18T23:47:16.154Z,7.17
2018-12-18T23:49:43.864Z,7.50
2018-12-18T23:52:11.748Z,6.53
2018-12-18T23:54:39.480Z,7.03
2018-12-18T23:57:07.257Z,7.67
2018-12-18T23:59:34.968Z,7.33
